sensor_id;sensor_type;location;lat;lon;timestamp;temperature;humidity
41922;DHT22;27609;51.002;5.354;2023-04-25T00:00:17;8.50;99.90
41922;DHT22;27609;51.002;5.354;2023-04-25T00:02:43;8.50;99.90
41922;DHT22;27609;51.002;5.354;2023-04-25T00:05:09;8.50;99.90
41922;DHT22;27609;51.002;5.354;2023-04-25T00:07:34;8.50;99.90
41922;DHT22;27609;51.002;5.354;2023-04-25T00:10:00;8.50;99.90
41922;DHT22;27609;51.002;5.354;2023-04-25T00:12:26;8.40;99.90
41922;DHT22;27609;51.002;5.354;2023-04-25T00:14:54;8.50;99.90
41922;DHT22;27609;51.002;5.354;2023-04-25T00:17:22;8.50;99.90
41922;DHT22;27609;51.002;5.354;2023-04-25T00:19:50;8.60;99.90
41922;DHT22;27609;51.002;5.354;2023-04-25T00:22:16;8.60;99.90
41922;DHT22;27609;51.002;5.354;2023-04-25T00:24:42;8.60;99.90
41922;DHT22;27609;51.002;5.354;2023-04-25T00:27:08;8.70;99.90
41922;DHT22;27609;51.002;5.354;2023-04-25T00:29:35;8.70;99.90
41922;DHT22;27609;51.002;5.354;2023-04-25T00:32:01;8.70;99.90
41922;DHT22;27609;51.002;5.354;2023-04-25T00:34:27;8.70;99.90
41922;DHT22;27609;51.002;5.354;2023-04-25T00:36:53;8.70;99.90
41922;DHT22;27609;51.002;5.354;2023-04-25T00:39:18;8.80;99.90
41922;DHT22;27609;51.002;5.354;2023-04-25T00:41:45;8.80;99.90
41922;DHT22;27609;51.002;5.354;2023-04-25T00:44:11;8.80;99.90
41922;DHT22;27609;51.002;5.354;2023-04-25T00:46:38;8.90;99.90
41922;DHT22;27609;51.002;5.354;2023-04-25T00:49:05;8.90;99.90
41922;DHT22;27609;51.002;5.354;2023-04-25T00:51:31;8.90;99.90
41922;DHT22;27609;51.002;5.354;2023-04-25T00:53:58;8.90;99.90
41922;DHT22;27609;51.002;5.354;2023-04-25T00:56:24;9.00;99.90
41922;DHT22;27609;51.002;5.354;2023-04-25T00:58:53;9.00;99.90
41922;DHT22;27609;51.002;5.354;2023-04-25T01:01:22;9.00;99.90
41922;DHT22;27609;51.002;5.354;2023-04-25T01:03:48;9.00;99.90
41922;DHT22;27609;51.002;5.354;2023-04-25T01:06:16;9.00;99.90
41922;DHT22;27609;51.002;5.354;2023-04-25T01:08:41;9.00;99.90
41922;DHT22;27609;51.002;5.354;2023-04-25T01:11:07;9.00;99.90
41922;DHT22;27609;51.002;5.354;2023-04-25T01:13:34;9.00;99.90
41922;DHT22;27609;51.002;5.354;2023-04-25T01:16:01;9.00;99.90
41922;DHT22;27609;51.002;5.354;2023-04-25T01:18:27;9.00;99.90
41922;DHT22;27609;51.002;5.354;2023-04-25T01:20:54;9.10;99.90
41922;DHT22;27609;51.002;5.354;2023-04-25T01:23:21;8.90;99.90
41922;DHT22;27609;51.002;5.354;2023-04-25T01:25:48;9.00;99.90
41922;DHT22;27609;51.002;5.354;2023-04-25T01:28:14;9.00;99.90
41922;DHT22;27609;51.002;5.354;2023-04-25T01:30:40;9.00;99.90
41922;DHT22;27609;51.002;5.354;2023-04-25T01:33:07;9.00;99.90
41922;DHT22;27609;51.002;5.354;2023-04-25T01:35:33;9.00;99.90
41922;DHT22;27609;51.002;5.354;2023-04-25T01:37:59;9.10;99.90
41922;DHT22;27609;51.002;5.354;2023-04-25T01:40:26;9.10;99.90
41922;DHT22;27609;51.002;5.354;2023-04-25T01:42:52;9.00;99.90
41922;DHT22;27609;51.002;5.354;2023-04-25T01:45:18;9.10;99.90
41922;DHT22;27609;51.002;5.354;2023-04-25T01:47:45;9.10;99.90
41922;DHT22;27609;51.002;5.354;2023-04-25T01:50:15;9.10;99.90
41922;DHT22;27609;51.002;5.354;2023-04-25T01:52:41;9.10;99.90
41922;DHT22;27609;51.002;5.354;2023-04-25T01:55:07;9.10;99.90
41922;DHT22;27609;51.002;5.354;2023-04-25T01:57:32;9.00;99.90
41922;DHT22;27609;51.002;5.354;2023-04-25T02:00:00;9.10;99.90
41922;DHT22;27609;51.002;5.354;2023-04-25T02:02:26;9.10;99.90
41922;DHT22;27609;51.002;5.354;2023-04-25T02:04:52;9.00;99.90
41922;DHT22;27609;51.002;5.354;2023-04-25T02:07:18;9.00;99.90
41922;DHT22;27609;51.002;5.354;2023-04-25T02:09:44;9.00;99.90
41922;DHT22;27609;51.002;5.354;2023-04-25T02:12:10;9.00;99.90
41922;DHT22;27609;51.002;5.354;2023-04-25T02:14:36;8.90;99.90
41922;DHT22;27609;51.002;5.354;2023-04-25T02:17:02;8.90;99.90
41922;DHT22;27609;51.002;5.354;2023-04-25T02:19:28;8.90;99.90
41922;DHT22;27609;51.002;5.354;2023-04-25T02:21:54;8.90;99.90
41922;DHT22;27609;51.002;5.354;2023-04-25T02:24:19;8.90;99.90
41922;DHT22;27609;51.002;5.354;2023-04-25T02:26:45;8.80;99.90
41922;DHT22;27609;51.002;5.354;2023-04-25T02:29:12;8.80;99.90
41922;DHT22;27609;51.002;5.354;2023-04-25T02:31:38;8.80;99.90
41922;DHT22;27609;51.002;5.354;2023-04-25T02:34:03;8.80;99.90
41922;DHT22;27609;51.002;5.354;2023-04-25T02:36:30;8.80;99.90
41922;DHT22;27609;51.002;5.354;2023-04-25T02:38:59;8.70;99.90
41922;DHT22;27609;51.002;5.354;2023-04-25T02:41:26;8.70;99.90
41922;DHT22;27609;51.002;5.354;2023-04-25T02:43:51;8.70;99.90
41922;DHT22;27609;51.002;5.354;2023-04-25T02:46:17;8.80;99.90
41922;DHT22;27609;51.002;5.354;2023-04-25T02:48:43;8.80;99.90
41922;DHT22;27609;51.002;5.354;2023-04-25T02:51:09;8.70;99.90
41922;DHT22;27609;51.002;5.354;2023-04-25T02:53:34;8.70;99.90
41922;DHT22;27609;51.002;5.354;2023-04-25T02:56:00;8.60;99.90
41922;DHT22;27609;51.002;5.354;2023-04-25T02:58:26;8.70;99.90
41922;DHT22;27609;51.002;5.354;2023-04-25T03:00:52;8.60;99.90
41922;DHT22;27609;51.002;5.354;2023-04-25T03:03:18;8.70;99.90
41922;DHT22;27609;51.002;5.354;2023-04-25T03:05:48;8.60;99.90
41922;DHT22;27609;51.002;5.354;2023-04-25T03:08:17;8.60;99.90
41922;DHT22;27609;51.002;5.354;2023-04-25T03:10:44;8.60;99.90
41922;DHT22;27609;51.002;5.354;2023-04-25T03:13:09;8.60;99.90
41922;DHT22;27609;51.002;5.354;2023-04-25T03:15:36;8.70;99.90
41922;DHT22;27609;51.002;5.354;2023-04-25T03:18:02;8.70;99.90
41922;DHT22;27609;51.002;5.354;2023-04-25T03:20:28;8.70;99.90
41922;DHT22;27609;51.002;5.354;2023-04-25T03:22:54;8.70;99.90
41922;DHT22;27609;51.002;5.354;2023-04-25T03:25:20;8.70;99.90
41922;DHT22;27609;51.002;5.354;2023-04-25T03:27:46;8.70;99.90
41922;DHT22;27609;51.002;5.354;2023-04-25T03:30:12;8.70;99.90
41922;DHT22;27609;51.002;5.354;2023-04-25T03:32:37;8.80;99.90
41922;DHT22;27609;51.002;5.354;2023-04-25T03:35:03;8.70;99.90
41922;DHT22;27609;51.002;5.354;2023-04-25T03:37:29;8.70;99.90
41922;DHT22;27609;51.002;5.354;2023-04-25T03:39:55;8.70;99.90
41922;DHT22;27609;51.002;5.354;2023-04-25T03:42:21;8.70;99.90
41922;DHT22;27609;51.002;5.354;2023-04-25T03:44:48;8.70;99.90
41922;DHT22;27609;51.002;5.354;2023-04-25T03:47:14;8.70;99.90
41922;DHT22;27609;51.002;5.354;2023-04-25T03:49:41;8.50;99.90
41922;DHT22;27609;51.002;5.354;2023-04-25T03:52:07;8.60;99.90
41922;DHT22;27609;51.002;5.354;2023-04-25T03:54:32;8.60;99.90
41922;DHT22;27609;51.002;5.354;2023-04-25T03:56:58;8.60;99.90
41922;DHT22;27609;51.002;5.354;2023-04-25T03:59:24;8.50;99.90
41922;DHT22;27609;51.002;5.354;2023-04-25T04:01:51;8.50;99.90
41922;DHT22;27609;51.002;5.354;2023-04-25T04:04:17;8.40;99.90
41922;DHT22;27609;51.002;5.354;2023-04-25T04:06:43;8.40;99.90
41922;DHT22;27609;51.002;5.354;2023-04-25T04:09:09;8.40;99.90
41922;DHT22;27609;51.002;5.354;2023-04-25T04:11:37;8.40;99.90
41922;DHT22;27609;51.002;5.354;2023-04-25T04:14:07;8.40;99.90
41922;DHT22;27609;51.002;5.354;2023-04-25T04:16:33;8.30;99.90
41922;DHT22;27609;51.002;5.354;2023-04-25T04:18:59;8.30;99.90
41922;DHT22;27609;51.002;5.354;2023-04-25T04:21:24;8.30;99.90
41922;DHT22;27609;51.002;5.354;2023-04-25T04:23:53;8.30;99.90
41922;DHT22;27609;51.002;5.354;2023-04-25T04:26:20;8.40;99.90
41922;DHT22;27609;51.002;5.354;2023-04-25T04:28:49;8.40;99.90
41922;DHT22;27609;51.002;5.354;2023-04-25T04:31:20;8.40;99.90
41922;DHT22;27609;51.002;5.354;2023-04-25T04:33:47;8.40;99.90
41922;DHT22;27609;51.002;5.354;2023-04-25T04:36:13;8.50;99.90
41922;DHT22;27609;51.002;5.354;2023-04-25T04:38:39;8.60;99.90
41922;DHT22;27609;51.002;5.354;2023-04-25T04:41:05;8.60;99.90
41922;DHT22;27609;51.002;5.354;2023-04-25T04:43:33;8.50;99.90
41922;DHT22;27609;51.002;5.354;2023-04-25T04:46:02;8.60;99.90
41922;DHT22;27609;51.002;5.354;2023-04-25T04:48:30;8.60;99.90
41922;DHT22;27609;51.002;5.354;2023-04-25T04:50:58;8.60;99.90
41922;DHT22;27609;51.002;5.354;2023-04-25T04:53:24;8.70;99.90
41922;DHT22;27609;51.002;5.354;2023-04-25T04:55:49;8.70;99.90
41922;DHT22;27609;51.002;5.354;2023-04-25T04:58:15;8.70;99.90
41922;DHT22;27609;51.002;5.354;2023-04-25T05:00:41;8.60;99.90
41922;DHT22;27609;51.002;5.354;2023-04-25T05:03:07;8.70;99.90
41922;DHT22;27609;51.002;5.354;2023-04-25T05:05:33;8.70;99.90
41922;DHT22;27609;51.002;5.354;2023-04-25T05:07:59;8.70;99.90
41922;DHT22;27609;51.002;5.354;2023-04-25T05:10:25;8.80;99.90
41922;DHT22;27609;51.002;5.354;2023-04-25T05:12:51;8.90;99.90
41922;DHT22;27609;51.002;5.354;2023-04-25T05:15:17;8.90;99.90
41922;DHT22;27609;51.002;5.354;2023-04-25T05:17:43;8.90;99.90
41922;DHT22;27609;51.002;5.354;2023-04-25T05:20:09;8.90;99.90
41922;DHT22;27609;51.002;5.354;2023-04-25T05:22:35;8.90;99.90
41922;DHT22;27609;51.002;5.354;2023-04-25T05:25:01;8.90;99.90
41922;DHT22;27609;51.002;5.354;2023-04-25T05:27:27;8.90;99.90
41922;DHT22;27609;51.002;5.354;2023-04-25T05:29:53;9.00;99.90
41922;DHT22;27609;51.002;5.354;2023-04-25T05:32:18;9.10;99.90
41922;DHT22;27609;51.002;5.354;2023-04-25T05:34:44;9.20;99.90
41922;DHT22;27609;51.002;5.354;2023-04-25T05:37:10;9.20;99.90
41922;DHT22;27609;51.002;5.354;2023-04-25T05:39:36;9.20;99.90
41922;DHT22;27609;51.002;5.354;2023-04-25T05:42:02;9.40;99.90
41922;DHT22;27609;51.002;5.354;2023-04-25T05:44:29;9.40;99.90
41922;DHT22;27609;51.002;5.354;2023-04-25T05:46:55;9.40;99.90
41922;DHT22;27609;51.002;5.354;2023-04-25T05:49:21;9.40;99.90
41922;DHT22;27609;51.002;5.354;2023-04-25T05:51:46;9.40;99.90
41922;DHT22;27609;51.002;5.354;2023-04-25T05:54:12;9.40;99.90
41922;DHT22;27609;51.002;5.354;2023-04-25T05:56:38;9.40;99.90
41922;DHT22;27609;51.002;5.354;2023-04-25T05:59:04;9.40;99.90
41922;DHT22;27609;51.002;5.354;2023-04-25T06:01:29;9.30;99.90
41922;DHT22;27609;51.002;5.354;2023-04-25T06:03:55;9.40;99.90
41922;DHT22;27609;51.002;5.354;2023-04-25T06:06:21;9.60;99.90
41922;DHT22;27609;51.002;5.354;2023-04-25T06:08:47;9.60;99.90
41922;DHT22;27609;51.002;5.354;2023-04-25T06:11:13;9.50;99.90
41922;DHT22;27609;51.002;5.354;2023-04-25T06:13:38;9.60;99.90
41922;DHT22;27609;51.002;5.354;2023-04-25T06:16:04;9.70;99.90
41922;DHT22;27609;51.002;5.354;2023-04-25T06:18:30;9.80;99.90
41922;DHT22;27609;51.002;5.354;2023-04-25T06:20:56;10.00;99.90
41922;DHT22;27609;51.002;5.354;2023-04-25T06:23:22;10.20;99.90
41922;DHT22;27609;51.002;5.354;2023-04-25T06:25:48;10.50;99.90
41922;DHT22;27609;51.002;5.354;2023-04-25T06:28:13;10.70;99.90
41922;DHT22;27609;51.002;5.354;2023-04-25T06:30:39;10.90;99.90
41922;DHT22;27609;51.002;5.354;2023-04-25T06:33:05;11.00;99.90
41922;DHT22;27609;51.002;5.354;2023-04-25T06:35:31;11.00;99.90
41922;DHT22;27609;51.002;5.354;2023-04-25T06:37:57;11.20;99.90
41922;DHT22;27609;51.002;5.354;2023-04-25T06:40:23;11.30;99.90
41922;DHT22;27609;51.002;5.354;2023-04-25T06:42:48;11.20;99.90
41922;DHT22;27609;51.002;5.354;2023-04-25T06:45:14;11.20;99.90
41922;DHT22;27609;51.002;5.354;2023-04-25T06:47:40;11.20;99.90
41922;DHT22;27609;51.002;5.354;2023-04-25T06:50:06;11.30;99.90
41922;DHT22;27609;51.002;5.354;2023-04-25T06:52:32;11.40;99.90
41922;DHT22;27609;51.002;5.354;2023-04-25T06:54:58;11.40;99.90
41922;DHT22;27609;51.002;5.354;2023-04-25T06:57:23;11.60;99.90
41922;DHT22;27609;51.002;5.354;2023-04-25T06:59:49;11.60;99.90
41922;DHT22;27609;51.002;5.354;2023-04-25T07:02:15;11.10;99.90
41922;DHT22;27609;51.002;5.354;2023-04-25T07:04:41;11.10;99.90
41922;DHT22;27609;51.002;5.354;2023-04-25T07:07:06;11.10;99.90
41922;DHT22;27609;51.002;5.354;2023-04-25T07:09:32;11.30;99.90
41922;DHT22;27609;51.002;5.354;2023-04-25T07:11:59;11.40;99.90
41922;DHT22;27609;51.002;5.354;2023-04-25T07:14:27;11.70;99.90
41922;DHT22;27609;51.002;5.354;2023-04-25T07:16:52;11.60;99.90
41922;DHT22;27609;51.002;5.354;2023-04-25T07:19:18;11.90;99.90
41922;DHT22;27609;51.002;5.354;2023-04-25T07:21:44;12.30;99.90
41922;DHT22;27609;51.002;5.354;2023-04-25T07:24:10;12.80;99.90
41922;DHT22;27609;51.002;5.354;2023-04-25T07:26:36;13.40;99.90
41922;DHT22;27609;51.002;5.354;2023-04-25T07:29:01;13.90;99.90
41922;DHT22;27609;51.002;5.354;2023-04-25T07:31:27;14.30;99.90
41922;DHT22;27609;51.002;5.354;2023-04-25T07:33:53;14.70;99.90
41922;DHT22;27609;51.002;5.354;2023-04-25T07:36:19;14.80;99.90
41922;DHT22;27609;51.002;5.354;2023-04-25T07:38:45;14.60;99.90
41922;DHT22;27609;51.002;5.354;2023-04-25T07:41:10;14.70;99.90
41922;DHT22;27609;51.002;5.354;2023-04-25T07:43:36;15.10;99.90
41922;DHT22;27609;51.002;5.354;2023-04-25T07:46:02;15.10;99.90
41922;DHT22;27609;51.002;5.354;2023-04-25T07:48:28;15.50;99.90
41922;DHT22;27609;51.002;5.354;2023-04-25T07:50:53;15.60;99.90
41922;DHT22;27609;51.002;5.354;2023-04-25T07:53:19;15.40;99.90
41922;DHT22;27609;51.002;5.354;2023-04-25T07:55:45;15.10;99.90
41922;DHT22;27609;51.002;5.354;2023-04-25T07:58:11;14.30;99.90
41922;DHT22;27609;51.002;5.354;2023-04-25T08:00:37;14.80;99.90
41922;DHT22;27609;51.002;5.354;2023-04-25T08:03:03;15.20;99.90
41922;DHT22;27609;51.002;5.354;2023-04-25T08:05:29;16.00;99.90
41922;DHT22;27609;51.002;5.354;2023-04-25T08:07:55;16.50;99.90
41922;DHT22;27609;51.002;5.354;2023-04-25T08:10:22;16.90;99.90
41922;DHT22;27609;51.002;5.354;2023-04-25T08:12:48;16.80;99.90
41922;DHT22;27609;51.002;5.354;2023-04-25T08:15:14;16.30;99.90
41922;DHT22;27609;51.002;5.354;2023-04-25T08:17:40;15.90;99.90
41922;DHT22;27609;51.002;5.354;2023-04-25T08:20:07;16.00;99.90
41922;DHT22;27609;51.002;5.354;2023-04-25T08:22:32;15.80;99.90
41922;DHT22;27609;51.002;5.354;2023-04-25T08:24:59;15.70;99.90
41922;DHT22;27609;51.002;5.354;2023-04-25T08:27:25;15.90;99.90
41922;DHT22;27609;51.002;5.354;2023-04-25T08:29:50;16.00;99.90
41922;DHT22;27609;51.002;5.354;2023-04-25T08:32:16;16.00;99.90
41922;DHT22;27609;51.002;5.354;2023-04-25T08:34:42;15.30;99.90
41922;DHT22;27609;51.002;5.354;2023-04-25T08:37:09;14.60;99.90
41922;DHT22;27609;51.002;5.354;2023-04-25T08:39:36;14.10;99.90
41922;DHT22;27609;51.002;5.354;2023-04-25T08:42:06;13.60;99.90
41922;DHT22;27609;51.002;5.354;2023-04-25T08:44:37;13.60;99.90
41922;DHT22;27609;51.002;5.354;2023-04-25T08:47:04;13.40;99.90
41922;DHT22;27609;51.002;5.354;2023-04-25T08:49:34;13.20;99.90
41922;DHT22;27609;51.002;5.354;2023-04-25T08:52:01;13.20;99.90
41922;DHT22;27609;51.002;5.354;2023-04-25T08:54:30;13.30;99.90
41922;DHT22;27609;51.002;5.354;2023-04-25T08:56:57;13.60;99.90
41922;DHT22;27609;51.002;5.354;2023-04-25T08:59:25;13.90;99.90
41922;DHT22;27609;51.002;5.354;2023-04-25T09:01:52;14.10;99.90
41922;DHT22;27609;51.002;5.354;2023-04-25T09:04:18;14.50;99.90
41922;DHT22;27609;51.002;5.354;2023-04-25T09:06:46;15.00;99.90
41922;DHT22;27609;51.002;5.354;2023-04-25T09:09:12;14.80;99.90
41922;DHT22;27609;51.002;5.354;2023-04-25T09:11:38;15.60;99.90
41922;DHT22;27609;51.002;5.354;2023-04-25T09:14:20;17.70;99.90
41922;DHT22;27609;51.002;5.354;2023-04-25T09:17:12;19.30;99.90
41922;DHT22;27609;51.002;5.354;2023-04-25T09:19:39;19.20;98.60
41922;DHT22;27609;51.002;5.354;2023-04-25T09:22:06;18.50;98.90
41922;DHT22;27609;51.002;5.354;2023-04-25T09:24:38;18.60;99.90
41922;DHT22;27609;51.002;5.354;2023-04-25T09:29:32;19.70;98.00
41922;DHT22;27609;51.002;5.354;2023-04-25T09:32:20;19.30;97.30
41922;DHT22;27609;51.002;5.354;2023-04-25T09:34:51;19.40;97.70
41922;DHT22;27609;51.002;5.354;2023-04-25T09:37:25;22.80;93.60
41922;DHT22;27609;51.002;5.354;2023-04-25T09:40:04;25.30;86.60
41922;DHT22;27609;51.002;5.354;2023-04-25T09:42:31;27.00;82.00
41922;DHT22;27609;51.002;5.354;2023-04-25T09:44:58;28.40;74.00
41922;DHT22;27609;51.002;5.354;2023-04-25T09:47:25;29.00;67.60
41922;DHT22;27609;51.002;5.354;2023-04-25T09:49:54;29.70;63.60
41922;DHT22;27609;51.002;5.354;2023-04-25T09:52:24;29.10;60.40
41922;DHT22;27609;51.002;5.354;2023-04-25T09:54:51;27.40;62.00
41922;DHT22;27609;51.002;5.354;2023-04-25T09:57:22;25.30;66.10
41922;DHT22;27609;51.002;5.354;2023-04-25T09:59:50;23.90;68.20
41922;DHT22;27609;51.002;5.354;2023-04-25T10:02:21;21.70;71.40
41922;DHT22;27609;51.002;5.354;2023-04-25T10:04:52;20.20;74.00
41922;DHT22;27609;51.002;5.354;2023-04-25T10:07:20;19.00;78.50
41922;DHT22;27609;51.002;5.354;2023-04-25T10:09:49;18.30;84.40
41922;DHT22;27609;51.002;5.354;2023-04-25T10:12:17;17.80;87.10
41922;DHT22;27609;51.002;5.354;2023-04-25T10:14:44;17.50;90.20
41922;DHT22;27609;51.002;5.354;2023-04-25T10:17:11;16.90;92.10
41922;DHT22;27609;51.002;5.354;2023-04-25T10:19:37;16.00;93.80
41922;DHT22;27609;51.002;5.354;2023-04-25T10:24:36;15.10;98.20
41922;DHT22;27609;51.002;5.354;2023-04-25T10:27:03;14.80;98.50
41922;DHT22;27609;51.002;5.354;2023-04-25T10:29:29;14.50;99.90
41922;DHT22;27609;51.002;5.354;2023-04-25T10:31:57;14.40;99.90
41922;DHT22;27609;51.002;5.354;2023-04-25T10:34:42;14.30;99.90
41922;DHT22;27609;51.002;5.354;2023-04-25T10:37:11;14.30;99.90
41922;DHT22;27609;51.002;5.354;2023-04-25T10:39:41;14.20;99.90
41922;DHT22;27609;51.002;5.354;2023-04-25T10:42:07;14.20;99.90
41922;DHT22;27609;51.002;5.354;2023-04-25T10:44:34;14.30;99.90
41922;DHT22;27609;51.002;5.354;2023-04-25T10:47:02;14.00;99.90
41922;DHT22;27609;51.002;5.354;2023-04-25T10:49:35;13.90;99.90
41922;DHT22;27609;51.002;5.354;2023-04-25T10:54:48;14.10;99.90
41922;DHT22;27609;51.002;5.354;2023-04-25T10:57:30;14.20;99.90
41922;DHT22;27609;51.002;5.354;2023-04-25T11:00:16;14.30;99.90
41922;DHT22;27609;51.002;5.354;2023-04-25T11:02:44;14.10;99.90
41922;DHT22;27609;51.002;5.354;2023-04-25T11:05:32;13.90;99.50
41922;DHT22;27609;51.002;5.354;2023-04-25T11:07:58;13.80;98.90
41922;DHT22;27609;51.002;5.354;2023-04-25T11:10:29;13.90;99.90
41922;DHT22;27609;51.002;5.354;2023-04-25T11:12:56;14.10;99.70
41922;DHT22;27609;51.002;5.354;2023-04-25T11:15:23;14.20;98.30
41922;DHT22;27609;51.002;5.354;2023-04-25T11:17:51;14.80;98.50
41922;DHT22;27609;51.002;5.354;2023-04-25T11:20:17;15.20;96.10
41922;DHT22;27609;51.002;5.354;2023-04-25T11:22:45;15.90;96.90
41922;DHT22;27609;51.002;5.354;2023-04-25T11:25:13;17.40;94.60
41922;DHT22;27609;51.002;5.354;2023-04-25T11:27:49;18.10;93.40
41922;DHT22;27609;51.002;5.354;2023-04-25T11:30:17;18.40;93.50
41922;DHT22;27609;51.002;5.354;2023-04-25T11:32:43;18.80;91.10
41922;DHT22;27609;51.002;5.354;2023-04-25T11:35:10;20.80;91.00
41922;DHT22;27609;51.002;5.354;2023-04-25T11:37:36;24.30;82.60
41922;DHT22;27609;51.002;5.354;2023-04-25T11:40:04;25.20;71.60
41922;DHT22;27609;51.002;5.354;2023-04-25T11:42:32;24.90;70.00
41922;DHT22;27609;51.002;5.354;2023-04-25T11:44:58;23.90;70.30
41922;DHT22;27609;51.002;5.354;2023-04-25T11:47:29;26.20;69.30
41922;DHT22;27609;51.002;5.354;2023-04-25T11:49:55;28.40;62.90
41922;DHT22;27609;51.002;5.354;2023-04-25T11:52:21;24.20;66.70
41922;DHT22;27609;51.002;5.354;2023-04-25T11:54:46;25.00;67.50
41922;DHT22;27609;51.002;5.354;2023-04-25T11:57:12;27.40;64.60
41922;DHT22;27609;51.002;5.354;2023-04-25T11:59:38;26.90;62.60
41922;DHT22;27609;51.002;5.354;2023-04-25T12:02:03;28.10;60.70
41922;DHT22;27609;51.002;5.354;2023-04-25T12:04:32;28.00;60.30
41922;DHT22;27609;51.002;5.354;2023-04-25T12:06:58;25.50;62.50
41922;DHT22;27609;51.002;5.354;2023-04-25T12:09:32;23.90;65.10
41922;DHT22;27609;51.002;5.354;2023-04-25T12:12:00;22.20;70.40
41922;DHT22;27609;51.002;5.354;2023-04-25T12:14:32;20.90;73.10
41922;DHT22;27609;51.002;5.354;2023-04-25T12:17:00;19.80;76.30
41922;DHT22;27609;51.002;5.354;2023-04-25T12:19:29;18.20;83.60
41922;DHT22;27609;51.002;5.354;2023-04-25T12:21:57;16.40;94.70
41922;DHT22;27609;51.002;5.354;2023-04-25T12:24:24;15.00;99.90
41922;DHT22;27609;51.002;5.354;2023-04-25T12:27:00;14.40;99.90
41922;DHT22;27609;51.002;5.354;2023-04-25T12:29:28;14.10;99.90
41922;DHT22;27609;51.002;5.354;2023-04-25T12:31:55;13.70;99.90
41922;DHT22;27609;51.002;5.354;2023-04-25T12:34:22;13.40;99.90
41922;DHT22;27609;51.002;5.354;2023-04-25T12:36:48;13.40;99.90
41922;DHT22;27609;51.002;5.354;2023-04-25T12:39:21;13.50;99.90
41922;DHT22;27609;51.002;5.354;2023-04-25T12:41:48;13.60;99.90
41922;DHT22;27609;51.002;5.354;2023-04-25T12:44:15;13.90;99.90
41922;DHT22;27609;51.002;5.354;2023-04-25T12:46:41;13.90;99.90
41922;DHT22;27609;51.002;5.354;2023-04-25T12:49:10;14.10;99.90
41922;DHT22;27609;51.002;5.354;2023-04-25T12:51:36;14.10;99.90
41922;DHT22;27609;51.002;5.354;2023-04-25T12:54:03;14.40;99.90
41922;DHT22;27609;51.002;5.354;2023-04-25T12:56:30;14.10;99.90
41922;DHT22;27609;51.002;5.354;2023-04-25T12:58:56;14.70;99.90
41922;DHT22;27609;51.002;5.354;2023-04-25T13:01:23;15.40;99.90
41922;DHT22;27609;51.002;5.354;2023-04-25T13:03:49;16.70;99.90
41922;DHT22;27609;51.002;5.354;2023-04-25T13:06:15;20.60;96.50
41922;DHT22;27609;51.002;5.354;2023-04-25T13:08:41;21.80;91.50
41922;DHT22;27609;51.002;5.354;2023-04-25T13:11:08;23.60;87.20
41922;DHT22;27609;51.002;5.354;2023-04-25T13:13:34;22.00;82.00
41922;DHT22;27609;51.002;5.354;2023-04-25T13:16:07;20.80;91.30
41922;DHT22;27609;51.002;5.354;2023-04-25T13:18:33;19.50;91.70
41922;DHT22;27609;51.002;5.354;2023-04-25T13:20:59;18.50;92.50
41922;DHT22;27609;51.002;5.354;2023-04-25T13:23:26;17.80;91.50
41922;DHT22;27609;51.002;5.354;2023-04-25T13:25:52;17.30;92.90
41922;DHT22;27609;51.002;5.354;2023-04-25T13:28:18;17.10;92.80
41922;DHT22;27609;51.002;5.354;2023-04-25T13:30:43;17.10;92.60
41922;DHT22;27609;51.002;5.354;2023-04-25T13:33:09;17.60;90.70
41922;DHT22;27609;51.002;5.354;2023-04-25T13:35:36;18.10;90.00
41922;DHT22;27609;51.002;5.354;2023-04-25T13:38:03;19.10;89.20
41922;DHT22;27609;51.002;5.354;2023-04-25T13:40:29;19.90;83.30
41922;DHT22;27609;51.002;5.354;2023-04-25T13:42:55;20.80;79.80
41922;DHT22;27609;51.002;5.354;2023-04-25T13:45:21;20.70;80.80
41922;DHT22;27609;51.002;5.354;2023-04-25T13:47:47;20.40;84.60
41922;DHT22;27609;51.002;5.354;2023-04-25T13:50:13;19.60;86.90
41922;DHT22;27609;51.002;5.354;2023-04-25T13:52:40;18.30;90.80
41922;DHT22;27609;51.002;5.354;2023-04-25T13:55:06;17.50;91.30
41922;DHT22;27609;51.002;5.354;2023-04-25T13:57:35;16.70;92.20
41922;DHT22;27609;51.002;5.354;2023-04-25T14:00:04;16.10;92.80
41922;DHT22;27609;51.002;5.354;2023-04-25T14:02:34;15.70;94.30
41922;DHT22;27609;51.002;5.354;2023-04-25T14:05:00;15.60;95.10
41922;DHT22;27609;51.002;5.354;2023-04-25T14:07:26;15.50;95.10
41922;DHT22;27609;51.002;5.354;2023-04-25T14:09:52;15.40;94.70
41922;DHT22;27609;51.002;5.354;2023-04-25T14:12:18;15.10;96.00
41922;DHT22;27609;51.002;5.354;2023-04-25T14:14:43;15.10;96.70
41922;DHT22;27609;51.002;5.354;2023-04-25T14:17:09;14.80;93.40
41922;DHT22;27609;51.002;5.354;2023-04-25T14:19:35;15.10;94.40
41922;DHT22;27609;51.002;5.354;2023-04-25T14:22:02;15.90;93.30
41922;DHT22;27609;51.002;5.354;2023-04-25T14:24:28;16.10;92.50
41922;DHT22;27609;51.002;5.354;2023-04-25T14:26:54;16.50;92.90
41922;DHT22;27609;51.002;5.354;2023-04-25T14:29:20;16.00;92.90
41922;DHT22;27609;51.002;5.354;2023-04-25T14:31:48;15.60;94.90
41922;DHT22;27609;51.002;5.354;2023-04-25T14:34:13;15.40;94.90
41922;DHT22;27609;51.002;5.354;2023-04-25T14:36:39;15.60;95.80
41922;DHT22;27609;51.002;5.354;2023-04-25T14:39:05;16.40;94.10
41922;DHT22;27609;51.002;5.354;2023-04-25T14:41:31;17.30;92.70
41922;DHT22;27609;51.002;5.354;2023-04-25T14:43:56;17.70;92.90
41922;DHT22;27609;51.002;5.354;2023-04-25T14:46:22;17.70;93.50
41922;DHT22;27609;51.002;5.354;2023-04-25T14:48:51;17.40;93.50
41922;DHT22;27609;51.002;5.354;2023-04-25T14:51:16;16.90;94.80
41922;DHT22;27609;51.002;5.354;2023-04-25T14:53:42;16.80;94.10
41922;DHT22;27609;51.002;5.354;2023-04-25T14:56:15;16.60;94.20
41922;DHT22;27609;51.002;5.354;2023-04-25T14:58:41;16.50;94.70
41922;DHT22;27609;51.002;5.354;2023-04-25T15:01:07;17.20;94.80
41922;DHT22;27609;51.002;5.354;2023-04-25T15:03:33;17.50;94.10
41922;DHT22;27609;51.002;5.354;2023-04-25T15:05:59;17.80;93.10
41922;DHT22;27609;51.002;5.354;2023-04-25T15:08:25;17.80;93.80
41922;DHT22;27609;51.002;5.354;2023-04-25T15:10:51;17.70;93.90
41922;DHT22;27609;51.002;5.354;2023-04-25T15:13:18;17.50;93.70
41922;DHT22;27609;51.002;5.354;2023-04-25T15:15:44;17.80;94.20
41922;DHT22;27609;51.002;5.354;2023-04-25T15:18:19;18.20;92.50
41922;DHT22;27609;51.002;5.354;2023-04-25T15:20:48;17.80;92.10
41922;DHT22;27609;51.002;5.354;2023-04-25T15:23:13;17.40;92.80
41922;DHT22;27609;51.002;5.354;2023-04-25T15:25:39;17.20;92.90
41922;DHT22;27609;51.002;5.354;2023-04-25T15:28:05;16.60;92.90
41922;DHT22;27609;51.002;5.354;2023-04-25T15:30:31;16.10;93.90
41922;DHT22;27609;51.002;5.354;2023-04-25T15:32:59;15.70;94.40
41922;DHT22;27609;51.002;5.354;2023-04-25T15:35:25;15.80;94.80
41922;DHT22;27609;51.002;5.354;2023-04-25T15:37:51;15.40;94.80
41922;DHT22;27609;51.002;5.354;2023-04-25T15:40:17;15.70;95.50
41922;DHT22;27609;51.002;5.354;2023-04-25T15:42:44;15.60;93.90